sensor_id;sensor_type;location;lat;lon;timestamp;P1;durP1;ratioP1;P2;durP2;ratioP2
57565;SDS011;63999;43.882;-0.310;2023-11-21T00:01:18;3.47;;;1.10;;
57565;SDS011;63999;43.882;-0.310;2023-11-21T00:03:44;6.20;;;2.00;;
57565;SDS011;63999;43.882;-0.310;2023-11-21T00:06:10;3.53;;;1.08;;
57565;SDS011;63999;43.882;-0.310;2023-11-21T00:08:36;4.05;;;0.93;;
57565;SDS011;63999;43.882;-0.310;2023-11-21T00:11:02;4.80;;;1.23;;
57565;SDS011;63999;43.882;-0.310;2023-11-21T00:13:31;1.83;;;0.80;;
57565;SDS011;63999;43.882;-0.310;2023-11-21T00:15:57;1.35;;;0.75;;
57565;SDS011;63999;43.882;-0.310;2023-11-21T00:18:23;1.92;;;0.60;;
57565;SDS011;63999;43.882;-0.310;2023-11-21T00:20:49;2.50;;;0.85;;
57565;SDS011;63999;43.882;-0.310;2023-11-21T00:23:14;2.45;;;0.75;;
57565;SDS011;63999;43.882;-0.310;2023-11-21T00:25:40;1.30;;;0.63;;
57565;SDS011;63999;43.882;-0.310;2023-11-21T00:28:06;3.80;;;1.35;;
57565;SDS011;63999;43.882;-0.310;2023-11-21T00:30:32;5.45;;;1.13;;
57565;SDS011;63999;43.882;-0.310;2023-11-21T00:32:58;2.70;;;0.82;;
57565;SDS011;63999;43.882;-0.310;2023-11-21T00:35:24;2.47;;;0.77;;
57565;SDS011;63999;43.882;-0.310;2023-11-21T00:38:00;3.97;;;0.52;;
57565;SDS011;63999;43.882;-0.310;2023-11-21T00:40:25;1.38;;;0.50;;
57565;SDS011;63999;43.882;-0.310;2023-11-21T00:42:51;5.00;;;0.75;;
57565;SDS011;63999;43.882;-0.310;2023-11-21T00:45:17;0.60;;;0.43;;
57565;SDS011;63999;43.882;-0.310;2023-11-21T00:47:43;3.35;;;0.50;;
57565;SDS011;63999;43.882;-0.310;2023-11-21T00:50:08;2.20;;;0.45;;
57565;SDS011;63999;43.882;-0.310;2023-11-21T00:52:34;3.08;;;0.63;;
57565;SDS011;63999;43.882;-0.310;2023-11-21T00:55:01;2.63;;;0.75;;
57565;SDS011;63999;43.882;-0.310;2023-11-21T00:57:28;2.30;;;0.40;;
57565;SDS011;63999;43.882;-0.310;2023-11-21T00:59:54;0.75;;;0.30;;
57565;SDS011;63999;43.882;-0.310;2023-11-21T01:02:20;2.45;;;0.65;;
57565;SDS011;63999;43.882;-0.310;2023-11-21T01:04:46;3.45;;;0.30;;
57565;SDS011;63999;43.882;-0.310;2023-11-21T01:07:12;1.38;;;0.40;;
57565;SDS011;63999;43.882;-0.310;2023-11-21T01:09:38;0.25;;;0.20;;
57565;SDS011;63999;43.882;-0.310;2023-11-21T01:12:04;2.03;;;0.60;;
57565;SDS011;63999;43.882;-0.310;2023-11-21T01:14:30;2.00;;;0.40;;
57565;SDS011;63999;43.882;-0.310;2023-11-21T01:16:56;2.97;;;0.30;;
57565;SDS011;63999;43.882;-0.310;2023-11-21T01:19:22;0.75;;;0.50;;
57565;SDS011;63999;43.882;-0.310;2023-11-21T01:21:48;1.33;;;0.30;;
57565;SDS011;63999;43.882;-0.310;2023-11-21T01:24:14;1.65;;;0.40;;
57565;SDS011;63999;43.882;-0.310;2023-11-21T01:26:40;0.98;;;0.25;;
57565;SDS011;63999;43.882;-0.310;2023-11-21T01:29:05;4.15;;;0.70;;
57565;SDS011;63999;43.882;-0.310;2023-11-21T01:31:31;0.20;;;0.20;;
57565;SDS011;63999;43.882;-0.310;2023-11-21T01:33:57;0.85;;;0.30;;
57565;SDS011;63999;43.882;-0.310;2023-11-21T01:36:29;0.43;;;0.20;;
57565;SDS011;63999;43.882;-0.310;2023-11-21T01:38:57;2.33;;;0.32;;
57565;SDS011;63999;43.882;-0.310;2023-11-21T01:41:25;2.00;;;0.40;;
57565;SDS011;63999;43.882;-0.310;2023-11-21T01:43:52;0.75;;;0.40;;
57565;SDS011;63999;43.882;-0.310;2023-11-21T01:46:19;2.22;;;0.68;;
57565;SDS011;63999;43.882;-0.310;2023-11-21T01:48:45;2.00;;;0.40;;
57565;SDS011;63999;43.882;-0.310;2023-11-21T01:51:13;6.03;;;0.35;;
57565;SDS011;63999;43.882;-0.310;2023-11-21T01:53:39;0.73;;;0.43;;
57565;SDS011;63999;43.882;-0.310;2023-11-21T01:56:06;1.30;;;0.30;;
57565;SDS011;63999;43.882;-0.310;2023-11-21T01:58:33;1.60;;;0.40;;
57565;SDS011;63999;43.882;-0.310;2023-11-21T02:00:59;3.00;;;0.55;;
57565;SDS011;63999;43.882;-0.310;2023-11-21T02:03:25;1.08;;;0.30;;
57565;SDS011;63999;43.882;-0.310;2023-11-21T02:05:52;2.00;;;0.30;;
57565;SDS011;63999;43.882;-0.310;2023-11-21T02:08:18;0.98;;;0.38;;
57565;SDS011;63999;43.882;-0.310;2023-11-21T02:10:44;3.53;;;0.57;;
57565;SDS011;63999;43.882;-0.310;2023-11-21T02:13:10;2.15;;;0.38;;
57565;SDS011;63999;43.882;-0.310;2023-11-21T02:15:37;3.40;;;0.30;;
57565;SDS011;63999;43.882;-0.310;2023-11-21T02:18:03;1.30;;;0.35;;
57565;SDS011;63999;43.882;-0.310;2023-11-21T02:20:31;0.47;;;0.30;;
57565;SDS011;63999;43.882;-0.310;2023-11-21T02:23:00;0.22;;;0.13;;
57565;SDS011;63999;43.882;-0.310;2023-11-21T02:27:56;0.75;;;0.40;;
57565;SDS011;63999;43.882;-0.310;2023-11-21T02:30:22;3.97;;;0.22;;
57565;SDS011;63999;43.882;-0.310;2023-11-21T02:32:50;1.58;;;0.63;;
57565;SDS011;63999;43.882;-0.310;2023-11-21T02:35:19;0.65;;;0.43;;
57565;SDS011;63999;43.882;-0.310;2023-11-21T02:37:49;0.80;;;0.40;;
57565;SDS011;63999;43.882;-0.310;2023-11-21T02:40:15;1.65;;;0.20;;
57565;SDS011;63999;43.882;-0.310;2023-11-21T02:42:46;1.25;;;0.28;;
57565;SDS011;63999;43.882;-0.310;2023-11-21T02:45:13;1.17;;;0.15;;
57565;SDS011;63999;43.882;-0.310;2023-11-21T02:47:41;1.85;;;0.30;;
57565;SDS011;63999;43.882;-0.310;2023-11-21T02:50:10;1.35;;;0.38;;
57565;SDS011;63999;43.882;-0.310;2023-11-21T02:52:37;0.98;;;0.20;;
57565;SDS011;63999;43.882;-0.310;2023-11-21T02:55:03;0.13;;;0.10;;
57565;SDS011;63999;43.882;-0.310;2023-11-21T02:57:29;1.85;;;0.30;;
57565;SDS011;63999;43.882;-0.310;2023-11-21T02:59:55;0.85;;;0.32;;
57565;SDS011;63999;43.882;-0.310;2023-11-21T03:02:21;0.00;;;0.00;;
57565;SDS011;63999;43.882;-0.310;2023-11-21T03:04:47;0.43;;;0.25;;
57565;SDS011;63999;43.882;-0.310;2023-11-21T03:07:14;0.65;;;0.13;;
57565;SDS011;63999;43.882;-0.310;2023-11-21T03:09:40;2.25;;;0.30;;
57565;SDS011;63999;43.882;-0.310;2023-11-21T03:12:06;0.55;;;0.20;;
57565;SDS011;63999;43.882;-0.310;2023-11-21T03:14:32;2.92;;;0.60;;
57565;SDS011;63999;43.882;-0.310;2023-11-21T03:16:58;3.13;;;0.20;;
57565;SDS011;63999;43.882;-0.310;2023-11-21T03:19:24;1.85;;;0.20;;
57565;SDS011;63999;43.882;-0.310;2023-11-21T03:21:50;2.10;;;0.20;;
57565;SDS011;63999;43.882;-0.310;2023-11-21T03:24:18;1.75;;;0.13;;
57565;SDS011;63999;43.882;-0.310;2023-11-21T03:26:45;1.55;;;0.15;;
57565;SDS011;63999;43.882;-0.310;2023-11-21T03:29:11;2.63;;;0.30;;
57565;SDS011;63999;43.882;-0.310;2023-11-21T03:31:38;1.88;;;0.30;;
57565;SDS011;63999;43.882;-0.310;2023-11-21T03:34:04;1.85;;;0.45;;
57565;SDS011;63999;43.882;-0.310;2023-11-21T03:36:31;0.45;;;0.20;;
57565;SDS011;63999;43.882;-0.310;2023-11-21T03:38:57;1.13;;;0.20;;
57565;SDS011;63999;43.882;-0.310;2023-11-21T03:41:23;1.63;;;0.22;;
57565;SDS011;63999;43.882;-0.310;2023-11-21T03:43:48;0.32;;;0.17;;
57565;SDS011;63999;43.882;-0.310;2023-11-21T03:46:14;3.53;;;0.35;;
57565;SDS011;63999;43.882;-0.310;2023-11-21T03:48:40;0.38;;;0.15;;
57565;SDS011;63999;43.882;-0.310;2023-11-21T03:51:07;1.75;;;0.60;;
57565;SDS011;63999;43.882;-0.310;2023-11-21T03:53:32;1.80;;;0.30;;
57565;SDS011;63999;43.882;-0.310;2023-11-21T03:55:58;0.25;;;0.10;;
57565;SDS011;63999;43.882;-0.310;2023-11-21T03:58:27;1.20;;;0.40;;
57565;SDS011;63999;43.882;-0.310;2023-11-21T04:00:52;3.30;;;0.45;;
57565;SDS011;63999;43.882;-0.310;2023-11-21T04:03:18;1.45;;;0.30;;
57565;SDS011;63999;43.882;-0.310;2023-11-21T04:05:45;2.72;;;0.52;;
57565;SDS011;63999;43.882;-0.310;2023-11-21T04:08:11;0.95;;;0.30;;
57565;SDS011;63999;43.882;-0.310;2023-11-21T04:10:37;0.50;;;0.30;;
57565;SDS011;63999;43.882;-0.310;2023-11-21T04:13:04;0.98;;;0.28;;
57565;SDS011;63999;43.882;-0.310;2023-11-21T04:15:31;1.90;;;0.40;;
57565;SDS011;63999;43.882;-0.310;2023-11-21T04:17:57;1.48;;;0.40;;
57565;SDS011;63999;43.882;-0.310;2023-11-21T04:20:23;0.10;;;0.10;;
57565;SDS011;63999;43.882;-0.310;2023-11-21T04:22:50;4.43;;;0.35;;
57565;SDS011;63999;43.882;-0.310;2023-11-21T04:25:15;1.63;;;0.25;;
57565;SDS011;63999;43.882;-0.310;2023-11-21T04:27:42;0.85;;;0.30;;
57565;SDS011;63999;43.882;-0.310;2023-11-21T04:30:09;0.10;;;0.10;;
57565;SDS011;63999;43.882;-0.310;2023-11-21T04:32:36;0.10;;;0.10;;
57565;SDS011;63999;43.882;-0.310;2023-11-21T04:35:04;1.35;;;0.60;;
57565;SDS011;63999;43.882;-0.310;2023-11-21T04:37:30;1.33;;;0.40;;
57565;SDS011;63999;43.882;-0.310;2023-11-21T04:39:56;1.30;;;0.40;;
57565;SDS011;63999;43.882;-0.310;2023-11-21T04:42:22;1.33;;;0.57;;
57565;SDS011;63999;43.882;-0.310;2023-11-21T04:44:48;1.35;;;0.30;;
57565;SDS011;63999;43.882;-0.310;2023-11-21T04:47:14;1.60;;;0.43;;
57565;SDS011;63999;43.882;-0.310;2023-11-21T04:49:43;1.13;;;0.20;;
57565;SDS011;63999;43.882;-0.310;2023-11-21T04:52:12;2.10;;;0.35;;
57565;SDS011;63999;43.882;-0.310;2023-11-21T04:54:37;0.40;;;0.15;;
57565;SDS011;63999;43.882;-0.310;2023-11-21T04:57:05;0.30;;;0.20;;
57565;SDS011;63999;43.882;-0.310;2023-11-21T04:59:32;0.20;;;0.20;;
57565;SDS011;63999;43.882;-0.310;2023-11-21T05:01:59;1.17;;;0.32;;
57565;SDS011;63999;43.882;-0.310;2023-11-21T05:04:25;0.52;;;0.20;;
57565;SDS011;63999;43.882;-0.310;2023-11-21T05:06:52;0.57;;;0.47;;
57565;SDS011;63999;43.882;-0.310;2023-11-21T05:09:18;0.98;;;0.30;;
57565;SDS011;63999;43.882;-0.310;2023-11-21T05:11:43;0.70;;;0.20;;
57565;SDS011;63999;43.882;-0.310;2023-11-21T05:14:09;1.75;;;0.60;;
57565;SDS011;63999;43.882;-0.310;2023-11-21T05:16:35;0.47;;;0.30;;
57565;SDS011;63999;43.882;-0.310;2023-11-21T05:19:01;0.80;;;0.40;;
57565;SDS011;63999;43.882;-0.310;2023-11-21T05:21:27;3.50;;;0.38;;
57565;SDS011;63999;43.882;-0.310;2023-11-21T05:23:55;1.60;;;0.60;;
57565;SDS011;63999;43.882;-0.310;2023-11-21T05:26:21;0.32;;;0.20;;
57565;SDS011;63999;43.882;-0.310;2023-11-21T05:28:46;1.20;;;0.57;;
57565;SDS011;63999;43.882;-0.310;2023-11-21T05:31:13;1.13;;;0.47;;
57565;SDS011;63999;43.882;-0.310;2023-11-21T05:33:38;0.93;;;0.30;;
57565;SDS011;63999;43.882;-0.310;2023-11-21T05:36:04;0.70;;;0.30;;
57565;SDS011;63999;43.882;-0.310;2023-11-21T05:38:33;1.05;;;0.60;;
57565;SDS011;63999;43.882;-0.310;2023-11-21T05:41:00;1.65;;;0.30;;
57565;SDS011;63999;43.882;-0.310;2023-11-21T05:43:26;0.50;;;0.28;;
57565;SDS011;63999;43.882;-0.310;2023-11-21T05:45:53;1.05;;;0.35;;
57565;SDS011;63999;43.882;-0.310;2023-11-21T05:48:19;0.88;;;0.30;;
57565;SDS011;63999;43.882;-0.310;2023-11-21T05:50:46;0.80;;;0.40;;
57565;SDS011;63999;43.882;-0.310;2023-11-21T05:53:13;1.45;;;0.47;;
57565;SDS011;63999;43.882;-0.310;2023-11-21T05:55:41;1.83;;;0.50;;
57565;SDS011;63999;43.882;-0.310;2023-11-21T05:58:07;3.08;;;1.67;;
57565;SDS011;63999;43.882;-0.310;2023-11-21T06:00:33;3.28;;;1.27;;
57565;SDS011;63999;43.882;-0.310;2023-11-21T06:02:59;2.58;;;1.65;;
57565;SDS011;63999;43.882;-0.310;2023-11-21T06:05:25;2.75;;;1.45;;
57565;SDS011;63999;43.882;-0.310;2023-11-21T06:07:57;1.42;;;0.85;;
57565;SDS011;63999;43.882;-0.310;2023-11-21T06:10:26;2.58;;;0.40;;
57565;SDS011;63999;43.882;-0.310;2023-11-21T06:12:53;1.38;;;0.47;;
57565;SDS011;63999;43.882;-0.310;2023-11-21T06:15:19;1.98;;;0.60;;
57565;SDS011;63999;43.882;-0.310;2023-11-21T06:17:47;5.13;;;1.88;;
57565;SDS011;63999;43.882;-0.310;2023-11-21T06:20:17;3.75;;;1.20;;
57565;SDS011;63999;43.882;-0.310;2023-11-21T06:22:43;1.42;;;0.70;;
57565;SDS011;63999;43.882;-0.310;2023-11-21T06:25:11;17.52;;;6.95;;
57565;SDS011;63999;43.882;-0.310;2023-11-21T06:27:41;6.43;;;2.50;;
57565;SDS011;63999;43.882;-0.310;2023-11-21T06:30:09;4.15;;;1.80;;
57565;SDS011;63999;43.882;-0.310;2023-11-21T06:32:36;3.13;;;1.58;;
57565;SDS011;63999;43.882;-0.310;2023-11-21T06:35:03;7.93;;;2.40;;
57565;SDS011;63999;43.882;-0.310;2023-11-21T06:37:29;2.45;;;1.23;;
57565;SDS011;63999;43.882;-0.310;2023-11-21T06:39:57;1.48;;;0.85;;
57565;SDS011;63999;43.882;-0.310;2023-11-21T06:42:23;1.30;;;0.45;;
57565;SDS011;63999;43.882;-0.310;2023-11-21T06:44:50;0.25;;;0.20;;
57565;SDS011;63999;43.882;-0.310;2023-11-21T06:47:22;0.55;;;0.35;;
57565;SDS011;63999;43.882;-0.310;2023-11-21T06:49:52;1.70;;;0.30;;
57565;SDS011;63999;43.882;-0.310;2023-11-21T06:52:18;0.80;;;0.30;;
57565;SDS011;63999;43.882;-0.310;2023-11-21T06:54:45;2.97;;;0.60;;
57565;SDS011;63999;43.882;-0.310;2023-11-21T06:57:23;0.30;;;0.30;;
57565;SDS011;63999;43.882;-0.310;2023-11-21T06:59:53;0.52;;;0.30;;
57565;SDS011;63999;43.882;-0.310;2023-11-21T07:02:23;0.45;;;0.38;;
57565;SDS011;63999;43.882;-0.310;2023-11-21T07:04:53;1.02;;;0.40;;
57565;SDS011;63999;43.882;-0.310;2023-11-21T07:07:20;0.38;;;0.20;;
57565;SDS011;63999;43.882;-0.310;2023-11-21T07:09:47;2.58;;;0.40;;
57565;SDS011;63999;43.882;-0.310;2023-11-21T07:12:14;0.50;;;0.40;;
57565;SDS011;63999;43.882;-0.310;2023-11-21T07:14:41;1.80;;;0.45;;
57565;SDS011;63999;43.882;-0.310;2023-11-21T07:17:11;0.90;;;0.47;;
57565;SDS011;63999;43.882;-0.310;2023-11-21T07:19:42;0.30;;;0.30;;
57565;SDS011;63999;43.882;-0.310;2023-11-21T07:22:09;1.85;;;0.40;;
57565;SDS011;63999;43.882;-0.310;2023-11-21T07:24:36;0.30;;;0.30;;
57565;SDS011;63999;43.882;-0.310;2023-11-21T07:27:02;1.10;;;0.35;;
57565;SDS011;63999;43.882;-0.310;2023-11-21T07:29:29;0.40;;;0.40;;
57565;SDS011;63999;43.882;-0.310;2023-11-21T07:31:58;0.52;;;0.35;;
57565;SDS011;63999;43.882;-0.310;2023-11-21T07:34:26;0.38;;;0.30;;
57565;SDS011;63999;43.882;-0.310;2023-11-21T07:36:53;0.70;;;0.40;;
57565;SDS011;63999;43.882;-0.310;2023-11-21T07:39:20;1.23;;;0.47;;
57565;SDS011;63999;43.882;-0.310;2023-11-21T07:41:55;0.50;;;0.38;;
57565;SDS011;63999;43.882;-0.310;2023-11-21T07:44:23;0.65;;;0.30;;
57565;SDS011;63999;43.882;-0.310;2023-11-21T07:46:50;0.32;;;0.30;;
57565;SDS011;63999;43.882;-0.310;2023-11-21T07:49:17;0.20;;;0.10;;
57565;SDS011;63999;43.882;-0.310;2023-11-21T07:51:48;0.40;;;0.20;;
57565;SDS011;63999;43.882;-0.310;2023-11-21T07:54:14;1.45;;;0.40;;
57565;SDS011;63999;43.882;-0.310;2023-11-21T07:56:41;0.40;;;0.20;;
57565;SDS011;63999;43.882;-0.310;2023-11-21T07:59:08;0.50;;;0.32;;
57565;SDS011;63999;43.882;-0.310;2023-11-21T08:01:39;0.57;;;0.38;;
57565;SDS011;63999;43.882;-0.310;2023-11-21T08:04:10;2.33;;;0.30;;
57565;SDS011;63999;43.882;-0.310;2023-11-21T08:06:38;2.17;;;0.30;;
57565;SDS011;63999;43.882;-0.310;2023-11-21T08:09:05;0.32;;;0.32;;
57565;SDS011;63999;43.882;-0.310;2023-11-21T08:11:33;0.40;;;0.35;;
57565;SDS011;63999;43.882;-0.310;2023-11-21T08:14:02;0.40;;;0.28;;
57565;SDS011;63999;43.882;-0.310;2023-11-21T08:16:30;0.85;;;0.13;;
57565;SDS011;63999;43.882;-0.310;2023-11-21T08:19:01;0.28;;;0.22;;
57565;SDS011;63999;43.882;-0.310;2023-11-21T08:21:28;1.30;;;0.68;;
57565;SDS011;63999;43.882;-0.310;2023-11-21T08:23:55;0.52;;;0.52;;
57565;SDS011;63999;43.882;-0.310;2023-11-21T08:26:21;2.20;;;0.85;;
57565;SDS011;63999;43.882;-0.310;2023-11-21T08:28:47;1.52;;;0.50;;
57565;SDS011;63999;43.882;-0.310;2023-11-21T08:31:15;4.18;;;0.40;;
57565;SDS011;63999;43.882;-0.310;2023-11-21T08:33:41;0.52;;;0.20;;
57565;SDS011;63999;43.882;-0.310;2023-11-21T08:36:09;2.78;;;0.40;;
57565;SDS011;63999;43.882;-0.310;2023-11-21T08:38:40;2.78;;;0.50;;
57565;SDS011;63999;43.882;-0.310;2023-11-21T08:41:06;6.43;;;0.80;;
57565;SDS011;63999;43.882;-0.310;2023-11-21T08:43:37;2.05;;;0.30;;
57565;SDS011;63999;43.882;-0.310;2023-11-21T08:46:07;6.70;;;1.15;;
57565;SDS011;63999;43.882;-0.310;2023-11-21T08:48:36;2.67;;;0.50;;
57565;SDS011;63999;43.882;-0.310;2023-11-21T08:51:06;2.58;;;0.50;;
57565;SDS011;63999;43.882;-0.310;2023-11-21T08:53:42;1.13;;;0.40;;
57565;SDS011;63999;43.882;-0.310;2023-11-21T08:56:19;1.10;;;0.63;;
57565;SDS011;63999;43.882;-0.310;2023-11-21T08:58:48;2.30;;;1.00;;
57565;SDS011;63999;43.882;-0.310;2023-11-21T09:01:15;3.38;;;0.57;;
57565;SDS011;63999;43.882;-0.310;2023-11-21T09:03:50;4.72;;;0.80;;
57565;SDS011;63999;43.882;-0.310;2023-11-21T09:06:17;0.80;;;0.55;;
57565;SDS011;63999;43.882;-0.310;2023-11-21T09:08:49;6.88;;;0.80;;
57565;SDS011;63999;43.882;-0.310;2023-11-21T09:11:24;2.75;;;0.60;;
57565;SDS011;63999;43.882;-0.310;2023-11-21T09:13:59;1.98;;;1.67;;
57565;SDS011;63999;43.882;-0.310;2023-11-21T09:16:36;2.55;;;1.42;;
57565;SDS011;63999;43.882;-0.310;2023-11-21T09:19:06;2.35;;;0.63;;
57565;SDS011;63999;43.882;-0.310;2023-11-21T09:21:34;3.22;;;1.70;;
57565;SDS011;63999;43.882;-0.310;2023-11-21T09:26:36;2.55;;;0.60;;
57565;SDS011;63999;43.882;-0.310;2023-11-21T09:29:05;1.30;;;0.70;;
57565;SDS011;63999;43.882;-0.310;2023-11-21T09:31:33;0.47;;;0.38;;
57565;SDS011;63999;43.882;-0.310;2023-11-21T09:34:00;2.63;;;0.63;;
57565;SDS011;63999;43.882;-0.310;2023-11-21T09:36:27;0.73;;;0.30;;
57565;SDS011;63999;43.882;-0.310;2023-11-21T09:38:55;0.65;;;0.32;;
57565;SDS011;63999;43.882;-0.310;2023-11-21T09:41:25;4.35;;;1.67;;
57565;SDS011;63999;43.882;-0.310;2023-11-21T09:44:02;9.13;;;3.17;;
57565;SDS011;63999;43.882;-0.310;2023-11-21T09:46:32;11.60;;;4.13;;
57565;SDS011;63999;43.882;-0.310;2023-11-21T09:49:00;4.15;;;2.03;;
57565;SDS011;63999;43.882;-0.310;2023-11-21T09:51:30;6.57;;;1.92;;
57565;SDS011;63999;43.882;-0.310;2023-11-21T09:54:04;2.60;;;1.55;;
57565;SDS011;63999;43.882;-0.310;2023-11-21T09:56:37;16.10;;;6.22;;
57565;SDS011;63999;43.882;-0.310;2023-11-21T09:59:05;16.08;;;7.80;;
57565;SDS011;63999;43.882;-0.310;2023-11-21T10:01:36;9.73;;;4.47;;
57565;SDS011;63999;43.882;-0.310;2023-11-21T10:04:04;22.42;;;6.55;;
57565;SDS011;63999;43.882;-0.310;2023-11-21T10:06:38;10.50;;;5.30;;
57565;SDS011;63999;43.882;-0.310;2023-11-21T10:09:11;22.13;;;7.95;;
57565;SDS011;63999;43.882;-0.310;2023-11-21T10:11:41;53.13;;;21.20;;
57565;SDS011;63999;43.882;-0.310;2023-11-21T10:14:17;19.83;;;7.13;;
57565;SDS011;63999;43.882;-0.310;2023-11-21T10:16:47;51.42;;;25.55;;
57565;SDS011;63999;43.882;-0.310;2023-11-21T10:19:14;29.75;;;17.60;;
57565;SDS011;63999;43.882;-0.310;2023-11-21T10:21:45;10.43;;;3.72;;
57565;SDS011;63999;43.882;-0.310;2023-11-21T10:24:25;8.00;;;5.10;;
57565;SDS011;63999;43.882;-0.310;2023-11-21T10:26:51;9.55;;;2.85;;
57565;SDS011;63999;43.882;-0.310;2023-11-21T10:29:21;6.97;;;2.83;;
57565;SDS011;63999;43.882;-0.310;2023-11-21T10:31:49;13.73;;;9.23;;
57565;SDS011;63999;43.882;-0.310;2023-11-21T10:34:17;2.42;;;1.90;;
57565;SDS011;63999;43.882;-0.310;2023-11-21T10:36:45;5.65;;;3.38;;
57565;SDS011;63999;43.882;-0.310;2023-11-21T10:39:33;3.90;;;2.25;;
57565;SDS011;63999;43.882;-0.310;2023-11-21T10:41:58;1.42;;;0.85;;
57565;SDS011;63999;43.882;-0.310;2023-11-21T10:44:26;2.25;;;1.50;;
57565;SDS011;63999;43.882;-0.310;2023-11-21T10:46:54;5.13;;;3.17;;
57565;SDS011;63999;43.882;-0.310;2023-11-21T10:51:55;3.83;;;1.42;;
57565;SDS011;63999;43.882;-0.310;2023-11-21T10:54:28;4.40;;;1.77;;
57565;SDS011;63999;43.882;-0.310;2023-11-21T10:56:56;2.70;;;1.95;;
57565;SDS011;63999;43.882;-0.310;2023-11-21T10:59:28;1.55;;;0.98;;
57565;SDS011;63999;43.882;-0.310;2023-11-21T11:01:57;5.47;;;2.90;;
57565;SDS011;63999;43.882;-0.310;2023-11-21T11:04:27;6.20;;;3.47;;
57565;SDS011;63999;43.882;-0.310;2023-11-21T11:06:57;4.88;;;2.17;;
57565;SDS011;63999;43.882;-0.310;2023-11-21T11:09:30;5.00;;;3.40;;
57565;SDS011;63999;43.882;-0.310;2023-11-21T11:12:03;3.95;;;1.75;;
57565;SDS011;63999;43.882;-0.310;2023-11-21T11:14:30;2.90;;;1.73;;
57565;SDS011;63999;43.882;-0.310;2023-11-21T11:16:57;1.50;;;0.98;;
57565;SDS011;63999;43.882;-0.310;2023-11-21T11:19:25;2.33;;;1.23;;
57565;SDS011;63999;43.882;-0.310;2023-11-21T11:24:53;1.92;;;1.10;;
57565;SDS011;63999;43.882;-0.310;2023-11-21T11:27:52;1.60;;;0.98;;
57565;SDS011;63999;43.882;-0.310;2023-11-21T11:31:05;2.97;;;1.25;;
57565;SDS011;63999;43.882;-0.310;2023-11-21T11:38:59;2.03;;;0.98;;
57565;SDS011;63999;43.882;-0.310;2023-11-21T11:41:33;1.23;;;0.93;;
57565;SDS011;63999;43.882;-0.310;2023-11-21T11:44:01;0.50;;;0.40;;
57565;SDS011;63999;43.882;-0.310;2023-11-21T11:46:45;3.33;;;0.60;;
57565;SDS011;63999;43.882;-0.310;2023-11-21T11:49:24;1.38;;;0.30;;
57565;SDS011;63999;43.882;-0.310;2023-11-21T11:54:56;0.82;;;0.57;;
57565;SDS011;63999;43.882;-0.310;2023-11-21T11:57:24;1.38;;;0.50;;
57565;SDS011;63999;43.882;-0.310;2023-11-21T12:00:33;1.20;;;0.70;;
57565;SDS011;63999;43.882;-0.310;2023-11-21T12:02:44;0.98;;;0.60;;
57565;SDS011;63999;43.882;-0.310;2023-11-21T12:05:15;0.52;;;0.40;;
57565;SDS011;63999;43.882;-0.310;2023-11-21T12:07:44;2.15;;;0.93;;
57565;SDS011;63999;43.882;-0.310;2023-11-21T12:10:24;2.42;;;1.80;;
57565;SDS011;63999;43.882;-0.310;2023-11-21T12:12:53;1.50;;;0.98;;
57565;SDS011;63999;43.882;-0.310;2023-11-21T12:15:21;1.10;;;0.60;;
57565;SDS011;63999;43.882;-0.310;2023-11-21T12:17:51;14.27;;;6.68;;
57565;SDS011;63999;43.882;-0.310;2023-11-21T12:20:19;7.15;;;4.47;;
57565;SDS011;63999;43.882;-0.310;2023-11-21T12:22:48;0.60;;;0.60;;
57565;SDS011;63999;43.882;-0.310;2023-11-21T12:25:19;3.60;;;2.13;;
57565;SDS011;63999;43.882;-0.310;2023-11-21T12:27:55;0.60;;;0.60;;
57565;SDS011;63999;43.882;-0.310;2023-11-21T12:30:26;6.57;;;3.53;;
57565;SDS011;63999;43.882;-0.310;2023-11-21T12:33:16;2.22;;;1.42;;
57565;SDS011;63999;43.882;-0.310;2023-11-21T12:35:44;1.35;;;0.85;;
57565;SDS011;63999;43.882;-0.310;2023-11-21T12:38:13;5.75;;;3.67;;
57565;SDS011;63999;43.882;-0.310;2023-11-21T12:40:44;5.15;;;3.25;;
57565;SDS011;63999;43.882;-0.310;2023-11-21T12:43:23;4.63;;;3.15;;
57565;SDS011;63999;43.882;-0.310;2023-11-21T12:45:49;1.27;;;0.90;;
57565;SDS011;63999;43.882;-0.310;2023-11-21T12:48:18;9.27;;;4.70;;
57565;SDS011;63999;43.882;-0.310;2023-11-21T12:50:49;4.90;;;2.72;;
57565;SDS011;63999;43.882;-0.310;2023-11-21T12:53:18;5.97;;;2.72;;
57565;SDS011;63999;43.882;-0.310;2023-11-21T12:55:44;7.20;;;3.50;;
57565;SDS011;63999;43.882;-0.310;2023-11-21T12:58:15;1.25;;;0.95;;
57565;SDS011;63999;43.882;-0.310;2023-11-21T13:00:46;1.23;;;0.70;;
57565;SDS011;63999;43.882;-0.310;2023-11-21T13:05:43;1.02;;;0.57;;
57565;SDS011;63999;43.882;-0.310;2023-11-21T13:08:11;1.42;;;1.02;;
57565;SDS011;63999;43.882;-0.310;2023-11-21T13:10:40;2.72;;;1.73;;
57565;SDS011;63999;43.882;-0.310;2023-11-21T13:13:11;2.25;;;1.00;;
57565;SDS011;63999;43.882;-0.310;2023-11-21T13:15:51;0.35;;;0.35;;
57565;SDS011;63999;43.882;-0.310;2023-11-21T13:18:21;2.33;;;1.00;;
57565;SDS011;63999;43.882;-0.310;2023-11-21T13:20:48;4.40;;;1.63;;
57565;SDS011;63999;43.882;-0.310;2023-11-21T13:23:15;3.90;;;2.05;;
57565;SDS011;63999;43.882;-0.310;2023-11-21T13:25:43;1.27;;;0.55;;
57565;SDS011;63999;43.882;-0.310;2023-11-21T13:28:14;7.00;;;2.72;;
57565;SDS011;63999;43.882;-0.310;2023-11-21T13:30:47;3.30;;;1.45;;
57565;SDS011;63999;43.882;-0.310;2023-11-21T13:33:17;1.60;;;1.02;;
57565;SDS011;63999;43.882;-0.310;2023-11-21T13:35:47;1.05;;;0.68;;
57565;SDS011;63999;43.882;-0.310;2023-11-21T13:38:17;0.65;;;0.47;;
57565;SDS011;63999;43.882;-0.310;2023-11-21T13:40:49;0.73;;;0.52;;
57565;SDS011;63999;43.882;-0.310;2023-11-21T13:43:20;0.57;;;0.57;;
57565;SDS011;63999;43.882;-0.310;2023-11-21T13:45:53;1.75;;;0.63;;
57565;SDS011;63999;43.882;-0.310;2023-11-21T13:48:40;0.52;;;0.40;;
57565;SDS011;63999;43.882;-0.310;2023-11-21T13:51:16;0.40;;;0.30;;
57565;SDS011;63999;43.882;-0.310;2023-11-21T13:53:43;1.25;;;0.40;;
57565;SDS011;63999;43.882;-0.310;2023-11-21T13:56:15;0.50;;;0.40;;
57565;SDS011;63999;43.882;-0.310;2023-11-21T13:58:49;0.65;;;0.38;;
57565;SDS011;63999;43.882;-0.310;2023-11-21T14:01:19;0.73;;;0.40;;
57565;SDS011;63999;43.882;-0.310;2023-11-21T14:04:17;0.10;;;0.10;;
57565;SDS011;63999;43.882;-0.310;2023-11-21T14:06:46;1.42;;;0.30;;
57565;SDS011;63999;43.882;-0.310;2023-11-21T14:09:16;0.17;;;0.17;;
57565;SDS011;63999;43.882;-0.310;2023-11-21T14:11:59;0.57;;;0.20;;
57565;SDS011;63999;43.882;-0.310;2023-11-21T14:14:31;0.13;;;0.13;;
57565;SDS011;63999;43.882;-0.310;2023-11-21T14:16:58;0.30;;;0.20;;
57565;SDS011;63999;43.882;-0.310;2023-11-21T14:19:32;0.55;;;0.38;;
57565;SDS011;63999;43.882;-0.310;2023-11-21T14:21:59;0.28;;;0.20;;
57565;SDS011;63999;43.882;-0.310;2023-11-21T14:24:26;0.10;;;0.10;;
57565;SDS011;63999;43.882;-0.310;2023-11-21T14:26:54;0.10;;;0.10;;
57565;SDS011;63999;43.882;-0.310;2023-11-21T14:29:24;1.15;;;0.28;;
57565;SDS011;63999;43.882;-0.310;2023-11-21T14:31:53;0.25;;;0.20;;
57565;SDS011;63999;43.882;-0.310;2023-11-21T14:34:22;1.65;;;0.20;;
57565;SDS011;63999;43.882;-0.310;2023-11-21T14:36:51;0.10;;;0.10;;
57565;SDS011;63999;43.882;-0.310;2023-11-21T14:39:23;4.10;;;0.55;;
57565;SDS011;63999;43.882;-0.310;2023-11-21T14:41:53;0.43;;;0.10;;
57565;SDS011;63999;43.882;-0.310;2023-11-21T14:44:24;0.60;;;0.20;;
57565;SDS011;63999;43.882;-0.310;2023-11-21T14:46:57;0.10;;;0.10;;
57565;SDS011;63999;43.882;-0.310;2023-11-21T14:49:25;0.10;;;0.10;;
57565;SDS011;63999;43.882;-0.310;2023-11-21T14:52:02;0.28;;;0.20;;
57565;SDS011;63999;43.882;-0.310;2023-11-21T14:54:33;2.50;;;0.13;;
57565;SDS011;63999;43.882;-0.310;2023-11-21T14:57:09;0.13;;;0.13;;
57565;SDS011;63999;43.882;-0.310;2023-11-21T14:59:43;0.10;;;0.10;;
57565;SDS011;63999;43.882;-0.310;2023-11-21T15:02:23;0.73;;;0.17;;
57565;SDS011;63999;43.882;-0.310;2023-11-21T15:05:14;0.20;;;0.20;;